Time;durP1;ratioP1;P1;durP2;ratioP2;P2;SDS_P1;SDS_P2;PMS_P1;PMS_P2;Temp;Humidity;BMP_temperature;BMP_pressure;BME280_temperature;BME280_humidity;BME280_pressure;Samples;Min_cycle;Max_cycle;Signal;HPM_P1;HPM_P2
2022/11/03 00:06:24;;;;;;;0.20;0.00;;;16.60;99.90;;;;;;25659289;23;20360;-71
2022/11/03 00:16:29;;;;;;;0.20;0.10;;;16.60;99.90;;;;;;25656934;23;20374;-71
2022/11/03 00:26:34;;;;;;;0.20;0.00;;;16.80;99.90;;;;;;25660325;23;20391;-71
2022/11/03 00:36:41;;;;;;;0.20;0.00;;;16.70;99.90;;;;;;25657324;23;20379;-71
2022/11/03 00:46:45;;;;;;;0.20;0.03;;;16.80;99.90;;;;;;25629832;23;20367;-71
2022/11/03 00:56:50;;;;;;;0.20;0.00;;;17.20;99.90;;;;;;25656463;23;20372;-72
2022/11/03 01:06:56;;;;;;;0.20;0.00;;;17.30;99.90;;;;;;25656875;23;20367;-72
2022/11/03 01:17:02;;;;;;;0.20;0.00;;;17.20;99.90;;;;;;25658691;23;20379;-71
2022/11/03 01:27:06;;;;;;;0.20;0.00;;;17.10;99.90;;;;;;25655409;23;20439;-70
2022/11/03 01:37:11;;;;;;;0.20;0.00;;;17.20;99.90;;;;;;25655364;23;20463;-70
2022/11/03 01:47:22;;;;;;;0.20;0.00;;;17.30;99.90;;;;;;25626120;23;20368;-70
2022/11/03 01:57:32;;;;;;;0.20;0.00;;;17.40;99.90;;;;;;25653916;23;20378;-70
2022/11/03 02:07:40;;;;;;;0.20;0.00;;;17.30;99.90;;;;;;25653313;23;20356;-70
2022/11/03 02:17:47;;;;;;;0.20;0.00;;;17.30;99.90;;;;;;25627545;23;20375;-71
2022/11/03 02:27:52;;;;;;;0.20;0.00;;;17.20;99.90;;;;;;25630300;23;20368;-72
2022/11/03 02:37:59;;;;;;;0.20;0.10;;;17.20;99.90;;;;;;25657155;23;20371;-72
2022/11/03 02:48:05;;;;;;;0.20;0.00;;;17.40;99.90;;;;;;25655004;23;20379;-71
2022/11/03 02:58:16;;;;;;;0.20;0.10;;;17.40;99.90;;;;;;25657157;23;20380;-71
2022/11/03 03:08:22;;;;;;;0.20;0.00;;;17.40;99.90;;;;;;25654453;23;20491;-71
2022/11/03 03:18:31;;;;;;;0.20;0.10;;;17.00;99.90;;;;;;25664088;23;20396;-71
2022/11/03 03:28:40;;;;;;;0.20;0.00;;;16.70;99.90;;;;;;25639914;23;20486;-71
2022/11/03 03:38:48;;;;;;;0.20;0.03;;;16.50;99.90;;;;;;25663488;23;20383;-71
2022/11/03 03:48:53;;;;;;;0.20;0.00;;;16.60;99.90;;;;;;25639279;23;20379;-72
2022/11/03 03:58:57;;;;;;;0.20;0.10;;;16.60;99.90;;;;;;25663622;23;20366;-72
2022/11/03 04:09:02;;;;;;;0.20;0.00;;;16.50;99.90;;;;;;25661436;23;20364;-72
2022/11/03 04:29:29;;;;;;;0.20;0.03;;;16.80;99.90;;;;;;25662946;23;20364;-71
2022/11/03 04:39:33;;;;;;;0.20;0.10;;;16.50;99.90;;;;;;25661577;23;20376;-72
2022/11/03 04:49:38;;;;;;;0.20;0.10;;;16.40;99.90;;;;;;25661943;23;20395;-71
2022/11/03 04:59:45;;;;;;;0.20;0.00;;;16.30;99.90;;;;;;25631874;23;20364;-71
2022/11/03 05:09:50;;;;;;;0.20;0.00;;;16.20;99.90;;;;;;25661271;23;20399;-71
2022/11/03 05:19:58;;;;;;;0.20;0.10;;;16.20;99.90;;;;;;25659694;23;20359;-71
2022/11/03 05:30:07;;;;;;;0.20;0.10;;;16.20;99.90;;;;;;25659575;23;20459;-71
2022/11/03 05:40:20;;;;;;;0.20;0.00;;;16.40;99.90;;;;;;25631890;23;20364;-72
2022/11/03 05:50:28;;;;;;;0.20;0.08;;;16.60;99.90;;;;;;25658626;23;20398;-69
2022/11/03 06:00:34;;;;;;;0.20;0.00;;;16.70;99.90;;;;;;25656956;23;20376;-70
2022/11/03 06:10:47;;;;;;;0.20;0.10;;;16.70;99.90;;;;;;25658799;23;20375;-72
2022/11/03 06:20:54;;;;;;;0.20;0.00;;;16.90;99.90;;;;;;25655691;23;20440;-72
2022/11/03 06:30:59;;;;;;;0.20;0.00;;;17.10;99.90;;;;;;25630773;23;20371;-72
2022/11/03 06:41:09;;;;;;;0.20;0.10;;;17.30;99.90;;;;;;25628181;23;20363;-72
2022/11/03 06:51:19;;;;;;;0.20;0.00;;;17.50;99.90;;;;;;25650104;23;20379;-72
2022/11/03 07:01:25;;;;;;;0.20;0.00;;;17.80;99.90;;;;;;25642214;23;20450;-72
2022/11/03 07:11:31;;;;;;;0.20;0.00;;;18.10;99.90;;;;;;25625905;23;20383;-71
2022/11/03 07:21:38;;;;;;;0.20;0.00;;;18.10;99.90;;;;;;25650613;23;20363;-72
2022/11/03 07:31:44;;;;;;;0.20;0.00;;;18.40;99.90;;;;;;25601262;23;20384;-70
2022/11/03 07:41:48;;;;;;;0.20;0.00;;;18.30;99.90;;;;;;25653457;23;20368;-71
2022/11/03 07:51:54;;;;;;;0.20;0.00;;;18.50;99.90;;;;;;25652118;23;20386;-71
2022/11/03 08:01:58;;;;;;;0.20;0.00;;;19.10;99.90;;;;;;25657931;23;20371;-72
2022/11/03 08:12:03;;;;;;;0.20;0.00;;;19.60;99.90;;;;;;25656853;23;20376;-71
2022/11/03 08:22:07;;;;;;;0.20;0.00;;;19.80;99.90;;;;;;25658841;23;20359;-72
2022/11/03 08:32:12;;;;;;;0.20;0.00;;;19.90;99.90;;;;;;25631111;23;20379;-71
2022/11/03 08:42:16;;;;;;;0.20;0.03;;;20.50;99.90;;;;;;25635397;23;20374;-70
2022/11/03 08:52:21;;;;;;;0.20;0.00;;;20.30;99.90;;;;;;25660101;23;20393;-72
2022/11/03 09:02:25;;;;;;;0.20;0.00;;;20.70;99.90;;;;;;25659223;23;21474;-71
2022/11/03 09:12:30;;;;;;;0.20;0.00;;;21.40;99.90;;;;;;25656834;23;20376;-69
2022/11/03 09:22:34;;;;;;;0.20;0.00;;;21.30;99.90;;;;;;25658876;23;20379;-71
2022/11/03 09:32:39;;;;;;;0.20;0.10;;;21.60;99.90;;;;;;25655311;23;20450;-71
2022/11/03 09:42:44;;;;;;;0.20;0.00;;;21.70;99.90;;;;;;25653458;23;20383;-71
2022/11/03 09:52:50;;;;;;;0.20;0.00;;;21.60;99.90;;;;;;25624870;23;20375;-72
2022/11/03 10:02:55;;;;;;;0.20;0.00;;;22.10;99.90;;;;;;25654305;23;20371;-71
2022/11/03 10:13:01;;;;;;;0.20;0.00;;;22.20;99.90;;;;;;25651428;23;20399;-74
2022/11/03 10:23:05;;;;;;;0.20;0.00;;;22.50;99.90;;;;;;25650542;23;20375;-72
2022/11/03 10:33:26;;;;;;;0.20;0.10;;;22.40;99.90;;;;;;25628206;23;20399;-75
2022/11/03 10:43:32;;;;;;;0.20;0.00;;;22.80;99.90;;;;;;25624437;23;20353;-72
2022/11/03 10:53:37;;;;;;;0.20;0.00;;;23.00;99.90;;;;;;25651329;23;20379;-71
2022/11/03 11:03:45;;;;;;;0.20;0.10;;;23.30;99.90;;;;;;25653857;23;20380;-72
2022/11/03 11:14:35;;;;;;;0.20;0.10;;;23.90;99.90;;;;;;25650922;23;20411;-70
2022/11/03 11:25:02;;;;;;;0.20;0.00;;;23.10;99.90;;;;;;25651858;23;20483;-73
2022/11/03 11:35:09;;;;;;;0.20;0.00;;;22.90;99.90;;;;;;25657415;23;20382;-71
2022/11/03 11:45:13;;;;;;;0.20;0.00;;;24.80;99.90;;;;;;25656790;23;20363;-71
2022/11/03 11:55:22;;;;;;;0.20;0.00;;;25.40;99.90;;;;;;25635725;23;20386;-72
2022/11/03 12:05:35;;;;;;;0.20;0.00;;;23.50;99.90;;;;;;25633497;23;20372;-73
2022/11/03 12:15:55;;;;;;;0.20;0.00;;;23.80;99.90;;;;;;25658113;23;20390;-73
2022/11/03 12:26:06;;;;;;;0.20;0.00;;;22.80;99.90;;;;;;25653921;23;20364;-73
2022/11/03 12:36:24;;;;;;;0.20;0.10;;;22.40;99.90;;;;;;25628696;23;20378;-71
2022/11/03 12:46:28;;;;;;;0.20;0.05;;;22.60;99.90;;;;;;25649591;23;20370;-70
2022/11/03 12:56:34;;;;;;;0.20;0.00;;;23.10;99.90;;;;;;25623403;23;20438;-72
2022/11/03 13:06:38;;;;;;;0.20;0.00;;;23.50;99.90;;;;;;25652308;23;20375;-71
2022/11/03 13:16:43;;;;;;;0.20;0.00;;;23.70;99.90;;;;;;25624974;23;20753;-71
2022/11/03 13:26:47;;;;;;;0.20;0.00;;;23.20;99.90;;;;;;25652625;23;20855;-71
2022/11/03 13:36:54;;;;;;;0.20;0.00;;;21.00;99.90;;;;;;25620411;23;20368;-72
2022/11/03 13:46:58;;;;;;;0.20;0.00;;;20.80;99.90;;;;;;25621132;23;20387;-71
2022/11/03 13:57:02;;;;;;;0.20;0.10;;;20.70;99.90;;;;;;25653580;23;20395;-71
2022/11/03 14:07:27;;;;;;;0.20;0.00;;;21.00;99.90;;;;;;25653837;23;20490;-70
2022/11/03 14:17:33;;;;;;;0.20;0.00;;;21.20;99.90;;;;;;25625825;23;20375;-68
2022/11/03 14:27:36;;;;;;;0.20;0.00;;;20.80;99.90;;;;;;25623611;23;20416;-69
2022/11/03 14:37:42;;;;;;;0.20;0.00;;;20.90;99.90;;;;;;25651800;23;20387;-69
2022/11/03 14:47:45;;;;;;;0.20;0.00;;;21.20;99.90;;;;;;25651293;23;20446;-71
2022/11/03 14:58:04;;;;;;;0.20;0.00;;;21.40;99.90;;;;;;25651082;23;20372;-69
2022/11/03 15:08:12;;;;;;;0.20;0.00;;;21.50;99.90;;;;;;25654150;23;20370;-69
2022/11/03 15:18:17;;;;;;;0.20;0.00;;;21.80;99.90;;;;;;25663167;23;20443;-69
2022/11/03 15:28:21;;;;;;;0.20;0.00;;;22.40;99.90;;;;;;25663537;23;20468;-70
2022/11/03 15:38:26;;;;;;;0.20;0.00;;;22.20;99.90;;;;;;25659651;23;20375;-70
2022/11/03 15:48:30;;;;;;;0.20;0.00;;;21.90;99.90;;;;;;25662612;23;20522;-70
2022/11/03 15:58:38;;;;;;;0.20;0.00;;;21.90;99.90;;;;;;25632883;23;20374;-67
2022/11/03 16:08:42;;;;;;;0.20;0.10;;;21.60;99.90;;;;;;25659917;23;20379;-71
2022/11/03 16:18:47;;;;;;;0.20;0.00;;;21.40;99.90;;;;;;25631878;23;20431;-71
2022/11/03 16:28:51;;;;;;;0.20;0.05;;;21.20;99.90;;;;;;25649908;23;20370;-69
2022/11/03 16:38:56;;;;;;;0.20;0.00;;;21.00;99.90;;;;;;25628625;23;20391;-70
2022/11/03 16:49:00;;;;;;;0.20;0.00;;;20.80;99.90;;;;;;25624546;23;20376;-71
2022/11/03 16:59:05;;;;;;;0.20;0.00;;;20.70;99.90;;;;;;25651687;23;20384;-69
2022/11/03 17:09:11;;;;;;;0.20;0.00;;;20.50;99.90;;;;;;25650726;23;20368;-68
2022/11/03 17:19:16;;;;;;;0.20;0.00;;;20.30;99.90;;;;;;25626920;23;20382;-70
2022/11/03 17:29:26;;;;;;;0.20;0.00;;;20.20;99.90;;;;;;25649710;23;20371;-70
2022/11/03 17:39:34;;;;;;;0.20;0.00;;;20.00;99.90;;;;;;25621834;23;20378;-69
2022/11/03 17:49:37;;;;;;;0.20;0.03;;;19.90;99.90;;;;;;25653018;23;21450;-69
2022/11/03 17:59:47;;;;;;;0.20;0.00;;;19.90;99.90;;;;;;25625039;23;20372;-68
2022/11/03 18:09:51;;;;;;;0.20;0.00;;;19.80;99.90;;;;;;25619609;23;20378;-69
2022/11/03 18:19:56;;;;;;;0.20;0.10;;;19.70;99.90;;;;;;25645103;23;20372;-70
2022/11/03 18:30:00;;;;;;;0.20;0.00;;;19.60;99.90;;;;;;25619080;23;20446;-69
2022/11/03 18:40:09;;;;;;;0.20;0.00;;;19.60;99.90;;;;;;25647951;23;20381;-70
2022/11/03 18:50:14;;;;;;;0.20;0.00;;;19.50;99.90;;;;;;25621926;23;20372;-68
2022/11/03 19:00:22;;;;;;;0.20;0.00;;;19.40;99.90;;;;;;25626081;23;20379;-67
2022/11/03 19:10:25;;;;;;;0.20;0.10;;;19.40;99.90;;;;;;25648859;23;20379;-69
2022/11/03 19:20:31;;;;;;;0.20;0.10;;;19.50;99.90;;;;;;25649628;23;20387;-70
2022/11/03 19:30:35;;;;;;;0.20;0.00;;;19.50;99.90;;;;;;25647553;23;20402;-67
2022/11/03 19:42:26;;;;;;;0.20;0.10;;;19.60;99.90;;;;;;25649193;23;20376;-68
2022/11/03 19:51:06;;;;;;;0.20;0.00;;;19.60;99.90;;;;;;25621559;23;20367;-68
2022/11/03 20:01:11;;;;;;;0.20;0.00;;;19.60;99.90;;;;;;25654638;23;20378;-68
2022/11/03 20:11:15;;;;;;;0.20;0.00;;;19.50;99.90;;;;;;25656918;23;20382;-68
2022/11/03 20:21:21;;;;;;;0.20;0.00;;;19.30;99.90;;;;;;25657781;23;20574;-67
2022/11/03 20:31:25;;;;;;;0.20;0.00;;;19.10;99.90;;;;;;25625456;23;20378;-69
2022/11/03 20:41:30;;;;;;;0.20;0.00;;;19.10;99.90;;;;;;25651255;23;20398;-69
2022/11/03 20:51:37;;;;;;;0.20;0.00;;;18.90;99.90;;;;;;25620308;23;20372;-69
2022/11/03 21:01:45;;;;;;;0.20;0.00;;;18.40;99.90;;;;;;25652514;23;20411;-70
2022/11/03 21:11:50;;;;;;;0.20;0.00;;;18.40;99.90;;;;;;25651501;23;20423;-69
2022/11/03 21:21:56;;;;;;;0.20;0.00;;;18.30;99.90;;;;;;25651456;23;20459;-70
2022/11/03 21:32:00;;;;;;;0.20;0.00;;;18.60;99.90;;;;;;25654036;23;20376;-70
2022/11/03 21:52:31;;;;;;;0.20;0.00;;;19.00;99.90;;;;;;25624930;23;20423;-69
2022/11/03 22:02:36;;;;;;;0.20;0.00;;;18.60;99.90;;;;;;25650255;23;20368;-70
2022/11/03 22:12:40;;;;;;;0.20;0.00;;;18.50;99.90;;;;;;25624900;23;20407;-71
2022/11/03 22:33:05;;;;;;;0.20;0.00;;;18.10;99.90;;;;;;25565613;23;20380;-69
2022/11/03 23:03:56;;;;;;;0.20;0.00;;;17.90;99.90;;;;;;25656337;23;20551;-69
2022/11/03 23:14:01;;;;;;;0.20;0.00;;;17.90;99.90;;;;;;25655037;23;20402;-69
2022/11/03 23:34:29;;;;;;;0.20;0.10;;;17.50;99.90;;;;;;25663976;23;20383;-70
2022/11/03 23:54:54;;;;;;;0.20;0.10;;;17.40;99.90;;;;;;25639729;23;20774;-71
